sensor_id;sensor_type;location;lat;lon;timestamp;temperature;humidity
65858;SHT31;53776;47.242;18.674;2022-12-18T00:01:23;-1.44;86.04
65858;SHT31;53776;47.242;18.674;2022-12-18T00:03:50;-1.51;86.09
65858;SHT31;53776;47.242;18.674;2022-12-18T00:06:16;-1.56;86.36
65858;SHT31;53776;47.242;18.674;2022-12-18T00:08:42;-1.55;86.26
65858;SHT31;53776;47.242;18.674;2022-12-18T00:11:12;-1.56;86.26
65858;SHT31;53776;47.242;18.674;2022-12-18T00:13:37;-1.50;86.05
65858;SHT31;53776;47.242;18.674;2022-12-18T00:16:09;-1.55;86.08
65858;SHT31;53776;47.242;18.674;2022-12-18T00:18:35;-1.54;86.09
65858;SHT31;53776;47.242;18.674;2022-12-18T00:21:03;-1.54;86.09
65858;SHT31;53776;47.242;18.674;2022-12-18T00:23:29;-1.56;86.14
65858;SHT31;53776;47.242;18.674;2022-12-18T00:25:59;-1.61;86.16
65858;SHT31;53776;47.242;18.674;2022-12-18T00:28:25;-1.61;86.23
65858;SHT31;53776;47.242;18.674;2022-12-18T00:30:50;-1.62;86.35
65858;SHT31;53776;47.242;18.674;2022-12-18T00:33:17;-1.66;86.43
65858;SHT31;53776;47.242;18.674;2022-12-18T00:35:42;-1.72;86.67
65858;SHT31;53776;47.242;18.674;2022-12-18T00:38:08;-1.72;86.77
65858;SHT31;53776;47.242;18.674;2022-12-18T00:40:33;-1.72;86.71
65858;SHT31;53776;47.242;18.674;2022-12-18T00:42:59;-1.75;86.74
65858;SHT31;53776;47.242;18.674;2022-12-18T00:45:28;-1.75;86.75
65858;SHT31;53776;47.242;18.674;2022-12-18T00:47:55;-1.75;86.82
65858;SHT31;53776;47.242;18.674;2022-12-18T00:50:21;-1.82;86.75
65858;SHT31;53776;47.242;18.674;2022-12-18T00:52:47;-1.78;86.72
65858;SHT31;53776;47.242;18.674;2022-12-18T00:55:12;-1.78;86.60
65858;SHT31;53776;47.242;18.674;2022-12-18T00:57:38;-1.76;86.60
65858;SHT31;53776;47.242;18.674;2022-12-18T01:00:05;-1.79;86.62
65858;SHT31;53776;47.242;18.674;2022-12-18T01:02:31;-1.76;86.57
65858;SHT31;53776;47.242;18.674;2022-12-18T01:04:57;-1.81;86.72
65858;SHT31;53776;47.242;18.674;2022-12-18T01:07:22;-1.81;86.75
65858;SHT31;53776;47.242;18.674;2022-12-18T01:09:48;-1.86;86.72
65858;SHT31;53776;47.242;18.674;2022-12-18T01:12:13;-1.87;86.87
65858;SHT31;53776;47.242;18.674;2022-12-18T01:14:39;-1.85;86.83
65858;SHT31;53776;47.242;18.674;2022-12-18T01:17:04;-1.89;86.88
65858;SHT31;53776;47.242;18.674;2022-12-18T01:19:30;-1.97;87.08
65858;SHT31;53776;47.242;18.674;2022-12-18T01:21:56;-2.07;87.36
65858;SHT31;53776;47.242;18.674;2022-12-18T01:24:21;-2.13;87.40
65858;SHT31;53776;47.242;18.674;2022-12-18T01:26:47;-2.16;87.51
65858;SHT31;53776;47.242;18.674;2022-12-18T01:29:12;-2.31;87.58
65858;SHT31;53776;47.242;18.674;2022-12-18T01:31:38;-2.36;87.60
65858;SHT31;53776;47.242;18.674;2022-12-18T01:34:04;-2.38;87.66
65858;SHT31;53776;47.242;18.674;2022-12-18T01:36:33;-2.43;87.75
65858;SHT31;53776;47.242;18.674;2022-12-18T01:39:16;-2.45;87.69
65858;SHT31;53776;47.242;18.674;2022-12-18T01:41:42;-2.40;87.92
65858;SHT31;53776;47.242;18.674;2022-12-18T01:44:59;-2.41;87.97
65858;SHT31;53776;47.242;18.674;2022-12-18T01:47:46;-2.36;87.77
65858;SHT31;53776;47.242;18.674;2022-12-18T01:52:42;-2.51;87.75
65858;SHT31;53776;47.242;18.674;2022-12-18T01:55:10;-2.60;87.78
65858;SHT31;53776;47.242;18.674;2022-12-18T01:57:37;-2.65;87.95
65858;SHT31;53776;47.242;18.674;2022-12-18T02:00:13;-2.61;88.20
65858;SHT31;53776;47.242;18.674;2022-12-18T02:02:43;-2.62;88.13
65858;SHT31;53776;47.242;18.674;2022-12-18T02:05:11;-2.73;88.26
65858;SHT31;53776;47.242;18.674;2022-12-18T02:10:41;-2.91;88.33
65858;SHT31;53776;47.242;18.674;2022-12-18T02:18:34;-2.91;88.47
65858;SHT31;53776;47.242;18.674;2022-12-18T02:26:38;-2.91;88.48
65858;SHT31;53776;47.242;18.674;2022-12-18T02:29:13;-2.73;88.41
65858;SHT31;53776;47.242;18.674;2022-12-18T02:31:45;-2.76;88.44
65858;SHT31;53776;47.242;18.674;2022-12-18T02:34:13;-2.85;88.35
65858;SHT31;53776;47.242;18.674;2022-12-18T02:36:41;-2.85;88.54
65858;SHT31;53776;47.242;18.674;2022-12-18T02:39:10;-2.85;88.52
65858;SHT31;53776;47.242;18.674;2022-12-18T02:41:36;-2.89;88.49
65858;SHT31;53776;47.242;18.674;2022-12-18T02:44:09;-2.95;88.47
65858;SHT31;53776;47.242;18.674;2022-12-18T02:46:41;-2.97;88.39
65858;SHT31;53776;47.242;18.674;2022-12-18T02:51:47;-3.06;88.53
65858;SHT31;53776;47.242;18.674;2022-12-18T02:56:53;-3.03;88.82
65858;SHT31;53776;47.242;18.674;2022-12-18T02:59:24;-2.97;88.75
65858;SHT31;53776;47.242;18.674;2022-12-18T03:02:02;-2.95;88.65
65858;SHT31;53776;47.242;18.674;2022-12-18T03:07:07;-2.82;88.54
65858;SHT31;53776;47.242;18.674;2022-12-18T03:09:42;-2.83;88.32
65858;SHT31;53776;47.242;18.674;2022-12-18T03:12:20;-2.91;88.33
65858;SHT31;53776;47.242;18.674;2022-12-18T03:17:31;-3.07;88.54
65858;SHT31;53776;47.242;18.674;2022-12-18T03:19:58;-3.21;88.56
65858;SHT31;53776;47.242;18.674;2022-12-18T03:22:25;-3.26;88.69
65858;SHT31;53776;47.242;18.674;2022-12-18T03:24:53;-3.30;88.74
65858;SHT31;53776;47.242;18.674;2022-12-18T03:27:23;-3.31;88.79
65858;SHT31;53776;47.242;18.674;2022-12-18T03:29:59;-3.36;88.81
65858;SHT31;53776;47.242;18.674;2022-12-18T03:32:37;-3.41;88.80
65858;SHT31;53776;47.242;18.674;2022-12-18T03:35:05;-3.48;89.01
65858;SHT31;53776;47.242;18.674;2022-12-18T03:37:31;-3.52;89.08
65858;SHT31;53776;47.242;18.674;2022-12-18T03:39:57;-3.58;89.17
65858;SHT31;53776;47.242;18.674;2022-12-18T03:45:34;-3.48;89.23
65858;SHT31;53776;47.242;18.674;2022-12-18T03:48:33;-3.60;89.31
65858;SHT31;53776;47.242;18.674;2022-12-18T03:51:13;-3.67;89.36
65858;SHT31;53776;47.242;18.674;2022-12-18T03:53:49;-3.72;89.51
65858;SHT31;53776;47.242;18.674;2022-12-18T03:56:17;-3.72;89.63
65858;SHT31;53776;47.242;18.674;2022-12-18T03:58:44;-3.57;89.73
65858;SHT31;53776;47.242;18.674;2022-12-18T04:01:13;-3.44;89.66
65858;SHT31;53776;47.242;18.674;2022-12-18T04:03:41;-3.44;89.49
65858;SHT31;53776;47.242;18.674;2022-12-18T04:06:07;-3.43;89.50
65858;SHT31;53776;47.242;18.674;2022-12-18T04:08:34;-3.39;89.46
65858;SHT31;53776;47.242;18.674;2022-12-18T04:11:01;-3.36;89.34
65858;SHT31;53776;47.242;18.674;2022-12-18T04:13:32;-3.36;89.29
65858;SHT31;53776;47.242;18.674;2022-12-18T04:15:59;-3.39;89.16
65858;SHT31;53776;47.242;18.674;2022-12-18T04:18:24;-3.43;89.23
65858;SHT31;53776;47.242;18.674;2022-12-18T04:20:50;-3.34;89.19
65858;SHT31;53776;47.242;18.674;2022-12-18T04:23:15;-3.29;88.96
65858;SHT31;53776;47.242;18.674;2022-12-18T04:25:40;-3.27;88.91
65858;SHT31;53776;47.242;18.674;2022-12-18T04:28:06;-3.17;88.60
65858;SHT31;53776;47.242;18.674;2022-12-18T04:30:31;-3.09;88.20
65858;SHT31;53776;47.242;18.674;2022-12-18T04:32:57;-3.06;87.80
65858;SHT31;53776;47.242;18.674;2022-12-18T04:35:22;-3.12;87.97
65858;SHT31;53776;47.242;18.674;2022-12-18T04:37:49;-3.19;87.93
65858;SHT31;53776;47.242;18.674;2022-12-18T04:40:14;-3.31;88.04
65858;SHT31;53776;47.242;18.674;2022-12-18T04:42:40;-3.36;88.24
65858;SHT31;53776;47.242;18.674;2022-12-18T04:45:06;-3.46;88.38
65858;SHT31;53776;47.242;18.674;2022-12-18T04:47:32;-3.52;88.51
65858;SHT31;53776;47.242;18.674;2022-12-18T04:49:57;-3.70;88.68
65858;SHT31;53776;47.242;18.674;2022-12-18T04:52:23;-3.79;88.71
65858;SHT31;53776;47.242;18.674;2022-12-18T04:54:48;-3.86;88.68
65858;SHT31;53776;47.242;18.674;2022-12-18T04:57:14;-3.96;88.69
65858;SHT31;53776;47.242;18.674;2022-12-18T04:59:39;-3.98;88.86
65858;SHT31;53776;47.242;18.674;2022-12-18T05:02:05;-3.88;89.12
65858;SHT31;53776;47.242;18.674;2022-12-18T05:04:30;-3.83;89.19
65858;SHT31;53776;47.242;18.674;2022-12-18T05:06:56;-3.85;89.19
65858;SHT31;53776;47.242;18.674;2022-12-18T05:09:21;-3.82;89.32
65858;SHT31;53776;47.242;18.674;2022-12-18T05:11:46;-3.88;89.47
65858;SHT31;53776;47.242;18.674;2022-12-18T05:14:12;-3.88;89.47
65858;SHT31;53776;47.242;18.674;2022-12-18T05:16:37;-3.95;89.39
65858;SHT31;53776;47.242;18.674;2022-12-18T05:19:03;-3.96;89.35
65858;SHT31;53776;47.242;18.674;2022-12-18T05:21:28;-3.96;89.36
65858;SHT31;53776;47.242;18.674;2022-12-18T05:23:54;-3.95;89.10
65858;SHT31;53776;47.242;18.674;2022-12-18T05:26:19;-4.06;89.17
65858;SHT31;53776;47.242;18.674;2022-12-18T05:28:45;-4.12;89.27
65858;SHT31;53776;47.242;18.674;2022-12-18T05:31:11;-4.12;89.46
65858;SHT31;53776;47.242;18.674;2022-12-18T05:33:37;-3.98;89.46
65858;SHT31;53776;47.242;18.674;2022-12-18T05:36:04;-3.99;89.33
65858;SHT31;53776;47.242;18.674;2022-12-18T05:38:32;-4.05;89.29
65858;SHT31;53776;47.242;18.674;2022-12-18T05:40:58;-4.12;89.13
65858;SHT31;53776;47.242;18.674;2022-12-18T05:43:24;-4.17;89.11
65858;SHT31;53776;47.242;18.674;2022-12-18T05:45:51;-4.26;89.16
65858;SHT31;53776;47.242;18.674;2022-12-18T05:48:17;-4.37;89.24
65858;SHT31;53776;47.242;18.674;2022-12-18T05:50:44;-4.41;89.22
65858;SHT31;53776;47.242;18.674;2022-12-18T05:53:14;-4.46;89.34
65858;SHT31;53776;47.242;18.674;2022-12-18T05:55:40;-4.50;89.19
65858;SHT31;53776;47.242;18.674;2022-12-18T05:58:08;-4.61;89.22
65858;SHT31;53776;47.242;18.674;2022-12-18T06:00:35;-4.67;89.60
65858;SHT31;53776;47.242;18.674;2022-12-18T06:03:01;-4.61;89.73
65858;SHT31;53776;47.242;18.674;2022-12-18T06:05:27;-4.60;89.65
65858;SHT31;53776;47.242;18.674;2022-12-18T06:07:53;-4.62;89.73
65858;SHT31;53776;47.242;18.674;2022-12-18T06:10:18;-4.71;89.68
65858;SHT31;53776;47.242;18.674;2022-12-18T06:12:44;-4.78;89.76
65858;SHT31;53776;47.242;18.674;2022-12-18T06:15:09;-4.81;89.71
65858;SHT31;53776;47.242;18.674;2022-12-18T06:17:35;-4.91;89.71
65858;SHT31;53776;47.242;18.674;2022-12-18T06:20:01;-4.96;89.67
65858;SHT31;53776;47.242;18.674;2022-12-18T06:22:26;-5.02;89.76
65858;SHT31;53776;47.242;18.674;2022-12-18T06:24:52;-5.10;89.83
65858;SHT31;53776;47.242;18.674;2022-12-18T06:27:18;-5.13;90.01
65858;SHT31;53776;47.242;18.674;2022-12-18T06:29:43;-5.15;90.01
65858;SHT31;53776;47.242;18.674;2022-12-18T06:32:08;-5.09;90.03
65858;SHT31;53776;47.242;18.674;2022-12-18T06:34:37;-5.09;90.13
65858;SHT31;53776;47.242;18.674;2022-12-18T06:37:02;-5.10;90.08
65858;SHT31;53776;47.242;18.674;2022-12-18T06:39:27;-5.17;90.08
65858;SHT31;53776;47.242;18.674;2022-12-18T06:41:53;-5.19;90.09
65858;SHT31;53776;47.242;18.674;2022-12-18T06:44:19;-5.20;90.11
65858;SHT31;53776;47.242;18.674;2022-12-18T06:46:44;-5.19;90.13
65858;SHT31;53776;47.242;18.674;2022-12-18T06:49:10;-5.17;90.14
65858;SHT31;53776;47.242;18.674;2022-12-18T06:51:35;-5.17;90.16
65858;SHT31;53776;47.242;18.674;2022-12-18T06:54:01;-5.15;90.17
65858;SHT31;53776;47.242;18.674;2022-12-18T06:56:26;-5.12;90.12
65858;SHT31;53776;47.242;18.674;2022-12-18T06:58:53;-5.10;90.04
65858;SHT31;53776;47.242;18.674;2022-12-18T07:01:18;-5.06;90.06
65858;SHT31;53776;47.242;18.674;2022-12-18T07:03:44;-5.03;90.13
65858;SHT31;53776;47.242;18.674;2022-12-18T07:06:18;-5.02;90.02
65858;SHT31;53776;47.242;18.674;2022-12-18T07:08:45;-4.96;89.84
65858;SHT31;53776;47.242;18.674;2022-12-18T07:11:10;-4.99;89.83
65858;SHT31;53776;47.242;18.674;2022-12-18T07:13:35;-5.00;89.95
65858;SHT31;53776;47.242;18.674;2022-12-18T07:16:21;-4.95;89.99
65858;SHT31;53776;47.242;18.674;2022-12-18T07:18:46;-4.89;89.90
65858;SHT31;53776;47.242;18.674;2022-12-18T07:21:15;-4.68;89.96
65858;SHT31;53776;47.242;18.674;2022-12-18T07:23:41;-3.65;89.44
65858;SHT31;53776;47.242;18.674;2022-12-18T07:26:09;-2.64;87.56
65858;SHT31;53776;47.242;18.674;2022-12-18T07:28:35;-1.85;85.67
65858;SHT31;53776;47.242;18.674;2022-12-18T07:31:09;-1.48;84.47
65858;SHT31;53776;47.242;18.674;2022-12-18T07:33:35;-0.93;82.36
65858;SHT31;53776;47.242;18.674;2022-12-18T07:36:02;-0.48;81.32
65858;SHT31;53776;47.242;18.674;2022-12-18T07:38:29;0.15;79.25
65858;SHT31;53776;47.242;18.674;2022-12-18T07:40:54;0.55;77.27
65858;SHT31;53776;47.242;18.674;2022-12-18T07:43:19;0.90;75.90
65858;SHT31;53776;47.242;18.674;2022-12-18T07:45:45;1.16;75.42
65858;SHT31;53776;47.242;18.674;2022-12-18T07:48:10;1.29;74.85
65858;SHT31;53776;47.242;18.674;2022-12-18T07:50:36;1.40;74.32
65858;SHT31;53776;47.242;18.674;2022-12-18T07:53:02;1.38;74.42
65858;SHT31;53776;47.242;18.674;2022-12-18T07:55:31;1.34;73.72
65858;SHT31;53776;47.242;18.674;2022-12-18T07:57:56;1.38;74.34
65858;SHT31;53776;47.242;18.674;2022-12-18T08:00:22;1.47;74.27
65858;SHT31;53776;47.242;18.674;2022-12-18T08:02:48;1.24;73.69
65858;SHT31;53776;47.242;18.674;2022-12-18T08:05:13;1.22;75.19
65858;SHT31;53776;47.242;18.674;2022-12-18T08:07:39;1.15;75.27
65858;SHT31;53776;47.242;18.674;2022-12-18T08:10:05;0.92;75.80
65858;SHT31;53776;47.242;18.674;2022-12-18T08:12:31;0.61;76.07
65858;SHT31;53776;47.242;18.674;2022-12-18T08:14:56;0.50;76.69
65858;SHT31;53776;47.242;18.674;2022-12-18T08:17:21;0.52;76.81
65858;SHT31;53776;47.242;18.674;2022-12-18T08:19:47;0.45;77.62
65858;SHT31;53776;47.242;18.674;2022-12-18T08:22:12;0.42;77.50
65858;SHT31;53776;47.242;18.674;2022-12-18T08:24:38;0.42;77.59
65858;SHT31;53776;47.242;18.674;2022-12-18T08:27:03;0.32;78.13
65858;SHT31;53776;47.242;18.674;2022-12-18T08:29:28;0.32;78.90
65858;SHT31;53776;47.242;18.674;2022-12-18T08:31:55;0.42;78.26
65858;SHT31;53776;47.242;18.674;2022-12-18T08:34:21;0.36;78.17
65858;SHT31;53776;47.242;18.674;2022-12-18T08:36:46;0.38;78.50
65858;SHT31;53776;47.242;18.674;2022-12-18T08:39:12;0.28;78.80
65858;SHT31;53776;47.242;18.674;2022-12-18T08:41:37;0.48;78.48
65858;SHT31;53776;47.242;18.674;2022-12-18T08:44:03;0.44;78.40
65858;SHT31;53776;47.242;18.674;2022-12-18T08:46:46;0.60;78.50
65858;SHT31;53776;47.242;18.674;2022-12-18T08:49:12;0.73;78.96
65858;SHT31;53776;47.242;18.674;2022-12-18T08:51:38;0.83;78.84
65858;SHT31;53776;47.242;18.674;2022-12-18T08:54:04;0.92;78.02
65858;SHT31;53776;47.242;18.674;2022-12-18T08:56:30;1.06;77.50
65858;SHT31;53776;47.242;18.674;2022-12-18T08:58:56;1.00;75.38
65858;SHT31;53776;47.242;18.674;2022-12-18T09:01:21;1.03;74.48
65858;SHT31;53776;47.242;18.674;2022-12-18T09:03:48;1.03;75.55
65858;SHT31;53776;47.242;18.674;2022-12-18T09:06:16;1.12;74.53
65858;SHT31;53776;47.242;18.674;2022-12-18T09:08:43;1.16;75.09
65858;SHT31;53776;47.242;18.674;2022-12-18T09:11:22;1.03;73.89
65858;SHT31;53776;47.242;18.674;2022-12-18T09:13:48;1.03;74.81
65858;SHT31;53776;47.242;18.674;2022-12-18T09:16:15;1.09;74.89
65858;SHT31;53776;47.242;18.674;2022-12-18T09:18:40;1.17;75.29
65858;SHT31;53776;47.242;18.674;2022-12-18T09:21:14;1.15;75.46
65858;SHT31;53776;47.242;18.674;2022-12-18T09:23:41;1.30;73.84
65858;SHT31;53776;47.242;18.674;2022-12-18T09:26:06;1.33;74.71
65858;SHT31;53776;47.242;18.674;2022-12-18T09:28:32;1.48;74.11
65858;SHT31;53776;47.242;18.674;2022-12-18T09:30:58;1.43;74.53
65858;SHT31;53776;47.242;18.674;2022-12-18T09:33:24;1.54;73.52
65858;SHT31;53776;47.242;18.674;2022-12-18T09:35:49;1.55;72.81
65858;SHT31;53776;47.242;18.674;2022-12-18T09:38:19;1.58;74.14
65858;SHT31;53776;47.242;18.674;2022-12-18T09:40:51;1.71;73.69
65858;SHT31;53776;47.242;18.674;2022-12-18T09:46:39;1.64;73.19
65858;SHT31;53776;47.242;18.674;2022-12-18T09:49:14;1.89;72.32
65858;SHT31;53776;47.242;18.674;2022-12-18T09:51:50;1.88;72.25
65858;SHT31;53776;47.242;18.674;2022-12-18T09:54:25;1.89;73.17
65858;SHT31;53776;47.242;18.674;2022-12-18T09:56:51;1.85;73.79
65858;SHT31;53776;47.242;18.674;2022-12-18T09:59:24;1.91;73.47
65858;SHT31;53776;47.242;18.674;2022-12-18T10:01:50;1.95;73.86
65858;SHT31;53776;47.242;18.674;2022-12-18T10:04:16;1.91;73.66
65858;SHT31;53776;47.242;18.674;2022-12-18T10:19:36;2.25;72.71
65858;SHT31;53776;47.242;18.674;2022-12-18T10:28:14;2.34;71.49
65858;SHT31;53776;47.242;18.674;2022-12-18T10:30:41;2.27;71.27
65858;SHT31;53776;47.242;18.674;2022-12-18T10:33:13;2.32;71.87
65858;SHT31;53776;47.242;18.674;2022-12-18T10:35:41;2.40;71.96
65858;SHT31;53776;47.242;18.674;2022-12-18T10:38:22;2.48;71.48
65858;SHT31;53776;47.242;18.674;2022-12-18T10:43:34;2.56;71.18
65858;SHT31;53776;47.242;18.674;2022-12-18T10:46:07;2.57;70.41
65858;SHT31;53776;47.242;18.674;2022-12-18T10:48:47;2.57;70.87
65858;SHT31;53776;47.242;18.674;2022-12-18T10:51:34;2.61;71.58
65858;SHT31;53776;47.242;18.674;2022-12-18T10:54:03;2.62;73.03
65858;SHT31;53776;47.242;18.674;2022-12-18T10:56:31;2.91;72.20
65858;SHT31;53776;47.242;18.674;2022-12-18T10:59:05;2.91;70.63
65858;SHT31;53776;47.242;18.674;2022-12-18T11:01:55;2.91;72.45
65858;SHT31;53776;47.242;18.674;2022-12-18T11:04:31;3.12;71.35
65858;SHT31;53776;47.242;18.674;2022-12-18T11:07:05;2.99;69.73
65858;SHT31;53776;47.242;18.674;2022-12-18T11:09:36;3.19;70.24
65858;SHT31;53776;47.242;18.674;2022-12-18T11:12:22;3.19;68.65
65858;SHT31;53776;47.242;18.674;2022-12-18T11:14:48;3.13;71.02
65858;SHT31;53776;47.242;18.674;2022-12-18T11:17:35;3.18;68.80
65858;SHT31;53776;47.242;18.674;2022-12-18T11:20:01;3.05;70.14
65858;SHT31;53776;47.242;18.674;2022-12-18T11:22:33;3.26;68.27
65858;SHT31;53776;47.242;18.674;2022-12-18T11:27:38;3.47;70.49
65858;SHT31;53776;47.242;18.674;2022-12-18T11:30:23;3.57;68.57
65858;SHT31;53776;47.242;18.674;2022-12-18T11:33:17;3.50;70.03
65858;SHT31;53776;47.242;18.674;2022-12-18T11:35:52;3.46;69.53
65858;SHT31;53776;47.242;18.674;2022-12-18T11:38:24;3.69;68.09
65858;SHT31;53776;47.242;18.674;2022-12-18T11:40:57;3.66;68.26
65858;SHT31;53776;47.242;18.674;2022-12-18T11:43:31;3.84;67.59
65858;SHT31;53776;47.242;18.674;2022-12-18T11:46:03;3.87;68.12
65858;SHT31;53776;47.242;18.674;2022-12-18T11:48:36;3.90;69.36
65858;SHT31;53776;47.242;18.674;2022-12-18T11:51:05;3.94;67.12
65858;SHT31;53776;47.242;18.674;2022-12-18T11:53:36;4.01;66.34
65858;SHT31;53776;47.242;18.674;2022-12-18T11:56:29;4.02;66.99
65858;SHT31;53776;47.242;18.674;2022-12-18T12:01:56;3.77;67.28
65858;SHT31;53776;47.242;18.674;2022-12-18T12:09:58;4.25;66.48
65858;SHT31;53776;47.242;18.674;2022-12-18T12:15:20;4.15;66.41
65858;SHT31;53776;47.242;18.674;2022-12-18T12:20:58;4.11;64.57
65858;SHT31;53776;47.242;18.674;2022-12-18T12:23:49;4.08;66.70
65858;SHT31;53776;47.242;18.674;2022-12-18T12:27:05;4.26;67.15
65858;SHT31;53776;47.242;18.674;2022-12-18T12:40:06;4.39;66.12
65858;SHT31;53776;47.242;18.674;2022-12-18T12:42:43;4.49;65.90
65858;SHT31;53776;47.242;18.674;2022-12-18T12:45:37;4.53;66.33
65858;SHT31;53776;47.242;18.674;2022-12-18T12:48:09;4.32;65.80
65858;SHT31;53776;47.242;18.674;2022-12-18T12:50:40;4.50;65.42
65858;SHT31;53776;47.242;18.674;2022-12-18T12:53:07;4.59;65.07
65858;SHT31;53776;47.242;18.674;2022-12-18T12:55:37;4.57;64.71
65858;SHT31;53776;47.242;18.674;2022-12-18T13:01:16;4.48;64.77
65858;SHT31;53776;47.242;18.674;2022-12-18T13:09:14;4.31;65.37
65858;SHT31;53776;47.242;18.674;2022-12-18T13:11:47;4.11;66.04
65858;SHT31;53776;47.242;18.674;2022-12-18T13:14:37;4.11;65.98
65858;SHT31;53776;47.242;18.674;2022-12-18T13:20:11;4.01;66.01
65858;SHT31;53776;47.242;18.674;2022-12-18T13:22:46;4.05;65.95
65858;SHT31;53776;47.242;18.674;2022-12-18T13:25:31;4.05;66.83
65858;SHT31;53776;47.242;18.674;2022-12-18T13:30:58;4.22;66.69
65858;SHT31;53776;47.242;18.674;2022-12-18T13:36:12;4.22;65.96
65858;SHT31;53776;47.242;18.674;2022-12-18T13:38:39;4.26;66.30
65858;SHT31;53776;47.242;18.674;2022-12-18T13:43:46;4.09;67.32
65858;SHT31;53776;47.242;18.674;2022-12-18T13:46:19;4.13;66.94
65858;SHT31;53776;47.242;18.674;2022-12-18T13:49:17;3.87;67.04
65858;SHT31;53776;47.242;18.674;2022-12-18T13:51:50;3.80;66.96
65858;SHT31;53776;47.242;18.674;2022-12-18T13:56:48;3.71;67.19
65858;SHT31;53776;47.242;18.674;2022-12-18T13:59:25;3.49;67.87
65858;SHT31;53776;47.242;18.674;2022-12-18T14:01:57;3.27;68.85
65858;SHT31;53776;47.242;18.674;2022-12-18T14:04:28;3.22;69.33
65858;SHT31;53776;47.242;18.674;2022-12-18T14:07:01;3.26;69.25
65858;SHT31;53776;47.242;18.674;2022-12-18T14:09:31;3.19;69.65
65858;SHT31;53776;47.242;18.674;2022-12-18T14:11:59;3.12;69.87
65858;SHT31;53776;47.242;18.674;2022-12-18T14:14:49;3.05;70.45
65858;SHT31;53776;47.242;18.674;2022-12-18T14:17:16;2.89;70.82
65858;SHT31;53776;47.242;18.674;2022-12-18T14:19:48;2.77;70.97
65858;SHT31;53776;47.242;18.674;2022-12-18T14:22:20;2.57;71.60
65858;SHT31;53776;47.242;18.674;2022-12-18T14:24:47;2.23;72.24
65858;SHT31;53776;47.242;18.674;2022-12-18T14:27:24;2.13;72.82
65858;SHT31;53776;47.242;18.674;2022-12-18T14:29:50;2.01;73.28
65858;SHT31;53776;47.242;18.674;2022-12-18T14:32:20;1.86;73.68
65858;SHT31;53776;47.242;18.674;2022-12-18T14:34:48;1.72;74.11
65858;SHT31;53776;47.242;18.674;2022-12-18T14:37:16;1.54;74.84
65858;SHT31;53776;47.242;18.674;2022-12-18T14:39:56;1.30;75.14
65858;SHT31;53776;47.242;18.674;2022-12-18T14:42:23;1.12;76.09
65858;SHT31;53776;47.242;18.674;2022-12-18T14:47:57;0.62;76.98
65858;SHT31;53776;47.242;18.674;2022-12-18T14:50:23;0.47;77.75
65858;SHT31;53776;47.242;18.674;2022-12-18T14:52:49;0.28;78.71
65858;SHT31;53776;47.242;18.674;2022-12-18T14:55:16;0.06;79.21
65858;SHT31;53776;47.242;18.674;2022-12-18T14:57:42;-0.10;79.95
65858;SHT31;53776;47.242;18.674;2022-12-18T15:00:17;-0.29;80.61
65858;SHT31;53776;47.242;18.674;2022-12-18T15:02:46;-0.41;80.35
65858;SHT31;53776;47.242;18.674;2022-12-18T15:07:43;-0.64;80.41
65858;SHT31;53776;47.242;18.674;2022-12-18T15:10:18;-0.75;81.35
65858;SHT31;53776;47.242;18.674;2022-12-18T15:12:47;-0.87;81.52
65858;SHT31;53776;47.242;18.674;2022-12-18T15:20:50;-1.18;82.00
65858;SHT31;53776;47.242;18.674;2022-12-18T15:25:45;-1.40;82.56
65858;SHT31;53776;47.242;18.674;2022-12-18T15:33:59;-1.51;84.49
65858;SHT31;53776;47.242;18.674;2022-12-18T15:36:29;-1.58;84.74
65858;SHT31;53776;47.242;18.674;2022-12-18T15:39:02;-1.66;84.91
65858;SHT31;53776;47.242;18.674;2022-12-18T15:41:27;-1.71;85.22
65858;SHT31;53776;47.242;18.674;2022-12-18T15:43:53;-1.72;85.32
65858;SHT31;53776;47.242;18.674;2022-12-18T15:46:24;-1.76;85.24
65858;SHT31;53776;47.242;18.674;2022-12-18T15:48:51;-1.81;85.47
65858;SHT31;53776;47.242;18.674;2022-12-18T15:51:21;-1.83;85.70
65858;SHT31;53776;47.242;18.674;2022-12-18T15:53:49;-1.83;85.70
65858;SHT31;53776;47.242;18.674;2022-12-18T15:56:16;-1.86;86.11
65858;SHT31;53776;47.242;18.674;2022-12-18T15:59:00;-1.92;86.33
65858;SHT31;53776;47.242;18.674;2022-12-18T16:01:28;-1.93;86.24
65858;SHT31;53776;47.242;18.674;2022-12-18T16:03:54;-1.99;86.24
65858;SHT31;53776;47.242;18.674;2022-12-18T16:06:20;-2.04;86.48
65858;SHT31;53776;47.242;18.674;2022-12-18T16:08:46;-2.07;86.60
65858;SHT31;53776;47.242;18.674;2022-12-18T16:11:26;-2.10;86.57
65858;SHT31;53776;47.242;18.674;2022-12-18T16:14:26;-2.16;86.91
65858;SHT31;53776;47.242;18.674;2022-12-18T16:16:57;-2.17;87.21
65858;SHT31;53776;47.242;18.674;2022-12-18T16:19:23;-2.24;87.27
65858;SHT31;53776;47.242;18.674;2022-12-18T16:21:51;-2.30;87.26
65858;SHT31;53776;47.242;18.674;2022-12-18T16:24:19;-2.38;87.22
65858;SHT31;53776;47.242;18.674;2022-12-18T16:26:47;-2.44;87.34
65858;SHT31;53776;47.242;18.674;2022-12-18T16:29:13;-2.51;87.51
65858;SHT31;53776;47.242;18.674;2022-12-18T16:31:38;-2.55;87.69
65858;SHT31;53776;47.242;18.674;2022-12-18T16:34:33;-2.62;87.73
65858;SHT31;53776;47.242;18.674;2022-12-18T16:37:01;-2.73;87.78
65858;SHT31;53776;47.242;18.674;2022-12-18T16:39:27;-2.76;88.14
65858;SHT31;53776;47.242;18.674;2022-12-18T16:41:52;-2.75;88.18
65858;SHT31;53776;47.242;18.674;2022-12-18T16:44:18;-2.79;88.28
65858;SHT31;53776;47.242;18.674;2022-12-18T16:46:44;-2.79;88.25
65858;SHT31;53776;47.242;18.674;2022-12-18T16:49:14;-2.81;88.16
65858;SHT31;53776;47.242;18.674;2022-12-18T16:51:40;-2.83;88.35
65858;SHT31;53776;47.242;18.674;2022-12-18T16:54:06;-2.81;88.33
65858;SHT31;53776;47.242;18.674;2022-12-18T16:56:31;-2.79;88.34
65858;SHT31;53776;47.242;18.674;2022-12-18T16:58:58;-2.86;88.36
65858;SHT31;53776;47.242;18.674;2022-12-18T17:01:25;-2.99;88.52
65858;SHT31;53776;47.242;18.674;2022-12-18T17:03:59;-3.02;88.51
65858;SHT31;53776;47.242;18.674;2022-12-18T17:06:26;-3.12;88.49
65858;SHT31;53776;47.242;18.674;2022-12-18T17:08:57;-3.14;88.50
65858;SHT31;53776;47.242;18.674;2022-12-18T17:11:24;-3.19;88.54
65858;SHT31;53776;47.242;18.674;2022-12-18T17:13:49;-3.23;88.58
65858;SHT31;53776;47.242;18.674;2022-12-18T17:16:15;-3.31;88.60
65858;SHT31;53776;47.242;18.674;2022-12-18T17:18:41;-3.41;88.64
65858;SHT31;53776;47.242;18.674;2022-12-18T17:21:08;-3.52;88.69
65858;SHT31;53776;47.242;18.674;2022-12-18T17:23:35;-3.48;88.72
65858;SHT31;53776;47.242;18.674;2022-12-18T17:26:01;-3.47;88.75
65858;SHT31;53776;47.242;18.674;2022-12-18T17:28:29;-3.51;88.77
65858;SHT31;53776;47.242;18.674;2022-12-18T17:30:55;-3.54;88.74
65858;SHT31;53776;47.242;18.674;2022-12-18T17:33:22;-3.62;88.81
65858;SHT31;53776;47.242;18.674;2022-12-18T17:35:48;-3.62;88.89
65858;SHT31;53776;47.242;18.674;2022-12-18T17:38:13;-3.75;88.87
65858;SHT31;53776;47.242;18.674;2022-12-18T17:40:39;-3.82;89.08